sensor_id;sensor_type;location;lat;lon;timestamp;P1;durP1;ratioP1;P2;durP2;ratioP2
38499;SDS011;24269;51.894;4.622;2022-12-18T00:01:43;55.15;;;16.95;;
38499;SDS011;24269;51.894;4.622;2022-12-18T00:04:18;53.10;;;15.73;;
38499;SDS011;24269;51.894;4.622;2022-12-18T00:06:47;53.63;;;15.85;;
38499;SDS011;24269;51.894;4.622;2022-12-18T00:09:16;52.92;;;16.23;;
38499;SDS011;24269;51.894;4.622;2022-12-18T00:11:42;46.97;;;17.15;;
38499;SDS011;24269;51.894;4.622;2022-12-18T00:14:08;49.40;;;16.88;;
38499;SDS011;24269;51.894;4.622;2022-12-18T00:16:36;50.10;;;16.75;;
38499;SDS011;24269;51.894;4.622;2022-12-18T00:19:02;50.78;;;16.35;;
38499;SDS011;24269;51.894;4.622;2022-12-18T00:21:29;58.28;;;16.92;;
38499;SDS011;24269;51.894;4.622;2022-12-18T00:23:55;55.38;;;16.65;;
38499;SDS011;24269;51.894;4.622;2022-12-18T00:26:23;51.33;;;17.88;;
38499;SDS011;24269;51.894;4.622;2022-12-18T00:29:03;44.10;;;15.68;;
38499;SDS011;24269;51.894;4.622;2022-12-18T00:31:32;47.17;;;16.02;;
38499;SDS011;24269;51.894;4.622;2022-12-18T00:33:58;52.35;;;17.45;;
38499;SDS011;24269;51.894;4.622;2022-12-18T00:36:26;47.42;;;16.55;;
38499;SDS011;24269;51.894;4.622;2022-12-18T00:38:57;54.80;;;16.85;;
38499;SDS011;24269;51.894;4.622;2022-12-18T00:41:24;47.30;;;14.98;;
38499;SDS011;24269;51.894;4.622;2022-12-18T00:44:09;41.38;;;15.23;;
38499;SDS011;24269;51.894;4.622;2022-12-18T00:46:37;49.78;;;16.35;;
38499;SDS011;24269;51.894;4.622;2022-12-18T00:49:02;49.25;;;16.00;;
38499;SDS011;24269;51.894;4.622;2022-12-18T00:51:28;44.53;;;16.75;;
38499;SDS011;24269;51.894;4.622;2022-12-18T00:53:54;53.53;;;16.80;;
38499;SDS011;24269;51.894;4.622;2022-12-18T00:56:20;44.22;;;15.57;;
38499;SDS011;24269;51.894;4.622;2022-12-18T00:58:45;37.95;;;15.25;;
38499;SDS011;24269;51.894;4.622;2022-12-18T01:01:11;47.08;;;15.13;;
38499;SDS011;24269;51.894;4.622;2022-12-18T01:03:37;43.33;;;14.93;;
38499;SDS011;24269;51.894;4.622;2022-12-18T01:06:10;54.13;;;17.85;;
38499;SDS011;24269;51.894;4.622;2022-12-18T01:08:37;40.95;;;15.15;;
38499;SDS011;24269;51.894;4.622;2022-12-18T01:11:10;45.75;;;14.75;;
38499;SDS011;24269;51.894;4.622;2022-12-18T01:13:38;44.90;;;15.30;;
38499;SDS011;24269;51.894;4.622;2022-12-18T01:16:04;43.40;;;15.73;;
38499;SDS011;24269;51.894;4.622;2022-12-18T01:18:30;47.88;;;17.15;;
38499;SDS011;24269;51.894;4.622;2022-12-18T01:20:56;48.63;;;16.05;;
38499;SDS011;24269;51.894;4.622;2022-12-18T01:23:22;46.20;;;16.70;;
38499;SDS011;24269;51.894;4.622;2022-12-18T01:25:47;54.17;;;16.33;;
38499;SDS011;24269;51.894;4.622;2022-12-18T01:28:13;47.08;;;15.98;;
38499;SDS011;24269;51.894;4.622;2022-12-18T01:30:39;48.70;;;15.55;;
38499;SDS011;24269;51.894;4.622;2022-12-18T01:33:05;47.05;;;16.13;;
38499;SDS011;24269;51.894;4.622;2022-12-18T01:35:33;41.53;;;15.68;;
38499;SDS011;24269;51.894;4.622;2022-12-18T01:38:05;45.15;;;14.20;;
38499;SDS011;24269;51.894;4.622;2022-12-18T01:40:32;39.08;;;14.23;;
38499;SDS011;24269;51.894;4.622;2022-12-18T01:43:00;40.88;;;14.48;;
38499;SDS011;24269;51.894;4.622;2022-12-18T01:45:27;43.17;;;14.25;;
38499;SDS011;24269;51.894;4.622;2022-12-18T01:48:00;45.70;;;14.25;;
38499;SDS011;24269;51.894;4.622;2022-12-18T01:50:36;36.00;;;13.38;;
38499;SDS011;24269;51.894;4.622;2022-12-18T01:53:18;34.03;;;13.15;;
38499;SDS011;24269;51.894;4.622;2022-12-18T01:55:48;44.15;;;15.82;;
38499;SDS011;24269;51.894;4.622;2022-12-18T01:58:17;37.80;;;13.80;;
38499;SDS011;24269;51.894;4.622;2022-12-18T02:00:43;42.08;;;15.13;;
38499;SDS011;24269;51.894;4.622;2022-12-18T02:03:09;32.92;;;13.38;;
38499;SDS011;24269;51.894;4.622;2022-12-18T02:11:07;39.30;;;13.95;;
38499;SDS011;24269;51.894;4.622;2022-12-18T02:28:13;35.47;;;13.55;;
38499;SDS011;24269;51.894;4.622;2022-12-18T02:30:42;37.55;;;13.13;;
38499;SDS011;24269;51.894;4.622;2022-12-18T02:33:10;51.42;;;14.75;;
38499;SDS011;24269;51.894;4.622;2022-12-18T02:35:41;34.50;;;12.77;;
38499;SDS011;24269;51.894;4.622;2022-12-18T02:38:08;53.05;;;15.05;;
38499;SDS011;24269;51.894;4.622;2022-12-18T02:40:35;39.60;;;12.80;;
38499;SDS011;24269;51.894;4.622;2022-12-18T02:43:07;47.35;;;14.45;;
38499;SDS011;24269;51.894;4.622;2022-12-18T02:45:48;49.63;;;14.70;;
38499;SDS011;24269;51.894;4.622;2022-12-18T02:51:01;35.00;;;12.10;;
38499;SDS011;24269;51.894;4.622;2022-12-18T02:53:37;47.38;;;14.23;;
38499;SDS011;24269;51.894;4.622;2022-12-18T02:58:53;48.72;;;16.02;;
38499;SDS011;24269;51.894;4.622;2022-12-18T03:04:21;42.22;;;14.32;;
38499;SDS011;24269;51.894;4.622;2022-12-18T03:06:49;43.08;;;13.85;;
38499;SDS011;24269;51.894;4.622;2022-12-18T03:09:22;40.63;;;14.70;;
38499;SDS011;24269;51.894;4.622;2022-12-18T03:11:56;47.13;;;13.98;;
38499;SDS011;24269;51.894;4.622;2022-12-18T03:14:48;42.80;;;14.45;;
38499;SDS011;24269;51.894;4.622;2022-12-18T03:17:24;35.10;;;12.52;;
38499;SDS011;24269;51.894;4.622;2022-12-18T03:19:52;39.42;;;13.30;;
38499;SDS011;24269;51.894;4.622;2022-12-18T03:22:22;32.15;;;12.10;;
38499;SDS011;24269;51.894;4.622;2022-12-18T03:24:51;38.38;;;13.32;;
38499;SDS011;24269;51.894;4.622;2022-12-18T03:27:19;37.10;;;13.48;;
38499;SDS011;24269;51.894;4.622;2022-12-18T03:29:48;34.40;;;12.40;;
38499;SDS011;24269;51.894;4.622;2022-12-18T03:32:27;30.00;;;11.88;;
38499;SDS011;24269;51.894;4.622;2022-12-18T03:34:57;40.63;;;14.82;;
38499;SDS011;24269;51.894;4.622;2022-12-18T03:37:27;37.13;;;12.70;;
38499;SDS011;24269;51.894;4.622;2022-12-18T03:39:53;32.10;;;12.10;;
38499;SDS011;24269;51.894;4.622;2022-12-18T03:47:36;40.90;;;13.63;;
38499;SDS011;24269;51.894;4.622;2022-12-18T03:50:18;36.25;;;11.88;;
38499;SDS011;24269;51.894;4.622;2022-12-18T03:55:31;30.27;;;12.10;;
38499;SDS011;24269;51.894;4.622;2022-12-18T03:57:59;39.08;;;13.63;;
38499;SDS011;24269;51.894;4.622;2022-12-18T04:00:28;39.10;;;12.45;;
38499;SDS011;24269;51.894;4.622;2022-12-18T04:02:56;27.92;;;11.32;;
38499;SDS011;24269;51.894;4.622;2022-12-18T04:05:24;41.20;;;12.73;;
38499;SDS011;24269;51.894;4.622;2022-12-18T04:07:54;34.13;;;11.55;;
38499;SDS011;24269;51.894;4.622;2022-12-18T04:10:21;39.20;;;12.32;;
38499;SDS011;24269;51.894;4.622;2022-12-18T04:12:47;33.08;;;12.27;;
38499;SDS011;24269;51.894;4.622;2022-12-18T04:15:16;32.88;;;11.48;;
38499;SDS011;24269;51.894;4.622;2022-12-18T04:17:50;28.52;;;11.82;;
38499;SDS011;24269;51.894;4.622;2022-12-18T04:20:16;33.63;;;11.60;;
38499;SDS011;24269;51.894;4.622;2022-12-18T04:22:42;31.98;;;12.25;;
38499;SDS011;24269;51.894;4.622;2022-12-18T04:25:08;30.80;;;12.07;;
38499;SDS011;24269;51.894;4.622;2022-12-18T04:27:37;28.33;;;11.50;;
38499;SDS011;24269;51.894;4.622;2022-12-18T04:30:03;35.15;;;12.45;;
38499;SDS011;24269;51.894;4.622;2022-12-18T04:32:29;37.17;;;11.80;;
38499;SDS011;24269;51.894;4.622;2022-12-18T04:34:55;34.50;;;12.50;;
38499;SDS011;24269;51.894;4.622;2022-12-18T04:37:21;33.13;;;12.85;;
38499;SDS011;24269;51.894;4.622;2022-12-18T04:39:47;31.88;;;12.82;;
38499;SDS011;24269;51.894;4.622;2022-12-18T04:42:16;35.58;;;13.65;;
38499;SDS011;24269;51.894;4.622;2022-12-18T04:44:41;29.85;;;12.15;;
38499;SDS011;24269;51.894;4.622;2022-12-18T04:47:11;34.90;;;10.77;;
38499;SDS011;24269;51.894;4.622;2022-12-18T04:49:37;31.45;;;12.60;;
38499;SDS011;24269;51.894;4.622;2022-12-18T04:52:02;33.40;;;11.98;;
38499;SDS011;24269;51.894;4.622;2022-12-18T04:54:28;33.83;;;12.18;;
38499;SDS011;24269;51.894;4.622;2022-12-18T04:56:54;28.48;;;12.02;;
38499;SDS011;24269;51.894;4.622;2022-12-18T04:59:19;24.70;;;10.27;;
38499;SDS011;24269;51.894;4.622;2022-12-18T05:01:45;27.92;;;10.93;;
38499;SDS011;24269;51.894;4.622;2022-12-18T05:04:10;30.90;;;11.95;;
38499;SDS011;24269;51.894;4.622;2022-12-18T05:06:36;30.65;;;11.18;;
38499;SDS011;24269;51.894;4.622;2022-12-18T05:09:02;30.13;;;11.40;;
38499;SDS011;24269;51.894;4.622;2022-12-18T05:11:27;31.20;;;11.23;;
38499;SDS011;24269;51.894;4.622;2022-12-18T05:13:53;33.40;;;12.75;;
38499;SDS011;24269;51.894;4.622;2022-12-18T05:16:19;29.77;;;11.95;;
38499;SDS011;24269;51.894;4.622;2022-12-18T05:18:44;29.38;;;10.35;;
38499;SDS011;24269;51.894;4.622;2022-12-18T05:21:10;28.38;;;10.85;;
38499;SDS011;24269;51.894;4.622;2022-12-18T05:23:36;26.65;;;12.25;;
38499;SDS011;24269;51.894;4.622;2022-12-18T05:26:03;27.08;;;10.13;;
38499;SDS011;24269;51.894;4.622;2022-12-18T05:28:31;28.85;;;11.57;;
38499;SDS011;24269;51.894;4.622;2022-12-18T05:30:58;24.98;;;9.90;;
38499;SDS011;24269;51.894;4.622;2022-12-18T05:33:26;26.77;;;10.75;;
38499;SDS011;24269;51.894;4.622;2022-12-18T05:35:55;30.98;;;10.48;;
38499;SDS011;24269;51.894;4.622;2022-12-18T05:38:23;31.98;;;11.45;;
38499;SDS011;24269;51.894;4.622;2022-12-18T05:40:52;29.90;;;11.00;;
38499;SDS011;24269;51.894;4.622;2022-12-18T05:43:18;31.92;;;11.50;;
38499;SDS011;24269;51.894;4.622;2022-12-18T05:45:47;30.55;;;11.23;;
38499;SDS011;24269;51.894;4.622;2022-12-18T05:48:16;27.67;;;10.60;;
38499;SDS011;24269;51.894;4.622;2022-12-18T05:50:42;26.80;;;9.85;;
38499;SDS011;24269;51.894;4.622;2022-12-18T05:55:39;22.27;;;9.75;;
38499;SDS011;24269;51.894;4.622;2022-12-18T05:58:07;30.45;;;10.32;;
38499;SDS011;24269;51.894;4.622;2022-12-18T06:00:35;23.00;;;9.88;;
38499;SDS011;24269;51.894;4.622;2022-12-18T06:03:04;27.90;;;10.98;;
38499;SDS011;24269;51.894;4.622;2022-12-18T06:05:34;25.10;;;10.38;;
38499;SDS011;24269;51.894;4.622;2022-12-18T06:08:01;21.08;;;9.63;;
38499;SDS011;24269;51.894;4.622;2022-12-18T06:10:26;31.60;;;12.13;;
38499;SDS011;24269;51.894;4.622;2022-12-18T06:12:52;25.10;;;10.52;;
38499;SDS011;24269;51.894;4.622;2022-12-18T06:15:18;26.25;;;12.45;;
38499;SDS011;24269;51.894;4.622;2022-12-18T06:17:43;26.17;;;9.82;;
38499;SDS011;24269;51.894;4.622;2022-12-18T06:20:09;26.90;;;9.85;;
38499;SDS011;24269;51.894;4.622;2022-12-18T06:22:34;25.15;;;10.57;;
38499;SDS011;24269;51.894;4.622;2022-12-18T06:25:00;22.70;;;10.43;;
38499;SDS011;24269;51.894;4.622;2022-12-18T06:27:26;24.40;;;9.13;;
38499;SDS011;24269;51.894;4.622;2022-12-18T06:29:51;19.13;;;9.43;;
38499;SDS011;24269;51.894;4.622;2022-12-18T06:32:17;22.73;;;9.93;;
38499;SDS011;24269;51.894;4.622;2022-12-18T06:34:43;25.38;;;9.93;;
38499;SDS011;24269;51.894;4.622;2022-12-18T06:37:08;26.90;;;9.88;;
38499;SDS011;24269;51.894;4.622;2022-12-18T06:39:34;19.60;;;9.65;;
38499;SDS011;24269;51.894;4.622;2022-12-18T06:41:59;25.88;;;10.10;;
38499;SDS011;24269;51.894;4.622;2022-12-18T06:44:26;25.95;;;10.20;;
38499;SDS011;24269;51.894;4.622;2022-12-18T06:46:51;23.90;;;9.52;;
38499;SDS011;24269;51.894;4.622;2022-12-18T06:49:17;25.45;;;10.63;;
38499;SDS011;24269;51.894;4.622;2022-12-18T06:51:42;25.20;;;8.60;;
38499;SDS011;24269;51.894;4.622;2022-12-18T06:54:08;26.23;;;9.43;;
38499;SDS011;24269;51.894;4.622;2022-12-18T06:56:34;26.25;;;9.10;;
38499;SDS011;24269;51.894;4.622;2022-12-18T06:58:59;22.90;;;8.65;;
38499;SDS011;24269;51.894;4.622;2022-12-18T07:01:26;20.75;;;9.93;;
38499;SDS011;24269;51.894;4.622;2022-12-18T07:03:55;23.38;;;10.52;;
38499;SDS011;24269;51.894;4.622;2022-12-18T07:06:22;23.55;;;8.63;;
38499;SDS011;24269;51.894;4.622;2022-12-18T07:08:50;21.25;;;8.40;;
38499;SDS011;24269;51.894;4.622;2022-12-18T07:11:16;22.35;;;8.68;;
38499;SDS011;24269;51.894;4.622;2022-12-18T07:13:43;22.98;;;9.63;;
38499;SDS011;24269;51.894;4.622;2022-12-18T07:16:10;19.92;;;8.52;;
38499;SDS011;24269;51.894;4.622;2022-12-18T07:18:37;23.17;;;9.05;;
38499;SDS011;24269;51.894;4.622;2022-12-18T07:21:07;18.00;;;8.80;;
38499;SDS011;24269;51.894;4.622;2022-12-18T07:23:34;18.77;;;8.18;;
38499;SDS011;24269;51.894;4.622;2022-12-18T07:26:04;18.77;;;8.55;;
38499;SDS011;24269;51.894;4.622;2022-12-18T07:28:31;23.65;;;8.95;;
38499;SDS011;24269;51.894;4.622;2022-12-18T07:30:58;20.15;;;7.78;;
38499;SDS011;24269;51.894;4.622;2022-12-18T07:33:28;19.33;;;8.23;;
38499;SDS011;24269;51.894;4.622;2022-12-18T07:35:54;24.95;;;8.77;;
38499;SDS011;24269;51.894;4.622;2022-12-18T07:38:19;20.52;;;8.20;;
38499;SDS011;24269;51.894;4.622;2022-12-18T07:40:45;18.52;;;8.80;;
38499;SDS011;24269;51.894;4.622;2022-12-18T07:43:11;25.15;;;9.20;;
38499;SDS011;24269;51.894;4.622;2022-12-18T07:45:36;21.75;;;9.05;;
38499;SDS011;24269;51.894;4.622;2022-12-18T07:48:02;22.55;;;9.00;;
38499;SDS011;24269;51.894;4.622;2022-12-18T07:50:28;22.17;;;9.10;;
38499;SDS011;24269;51.894;4.622;2022-12-18T07:52:53;25.23;;;8.40;;
38499;SDS011;24269;51.894;4.622;2022-12-18T07:55:19;23.20;;;8.68;;
38499;SDS011;24269;51.894;4.622;2022-12-18T07:57:45;23.05;;;9.43;;
38499;SDS011;24269;51.894;4.622;2022-12-18T08:00:10;20.10;;;9.68;;
38499;SDS011;24269;51.894;4.622;2022-12-18T08:02:39;24.15;;;9.18;;
38499;SDS011;24269;51.894;4.622;2022-12-18T08:05:05;19.52;;;8.20;;
38499;SDS011;24269;51.894;4.622;2022-12-18T08:07:30;25.67;;;9.38;;
38499;SDS011;24269;51.894;4.622;2022-12-18T08:09:56;22.48;;;9.10;;
38499;SDS011;24269;51.894;4.622;2022-12-18T08:12:22;21.27;;;8.35;;
38499;SDS011;24269;51.894;4.622;2022-12-18T08:14:47;16.90;;;8.00;;
38499;SDS011;24269;51.894;4.622;2022-12-18T08:17:13;19.83;;;7.63;;
38499;SDS011;24269;51.894;4.622;2022-12-18T08:19:39;17.60;;;8.02;;
38499;SDS011;24269;51.894;4.622;2022-12-18T08:22:04;19.05;;;7.57;;
38499;SDS011;24269;51.894;4.622;2022-12-18T08:24:30;16.67;;;8.30;;
38499;SDS011;24269;51.894;4.622;2022-12-18T08:26:56;18.70;;;8.10;;
38499;SDS011;24269;51.894;4.622;2022-12-18T08:29:22;15.43;;;7.88;;
38499;SDS011;24269;51.894;4.622;2022-12-18T08:31:48;21.45;;;9.13;;
38499;SDS011;24269;51.894;4.622;2022-12-18T08:34:15;16.23;;;7.93;;
38499;SDS011;24269;51.894;4.622;2022-12-18T08:36:41;15.60;;;7.93;;
38499;SDS011;24269;51.894;4.622;2022-12-18T08:39:06;19.88;;;8.27;;
38499;SDS011;24269;51.894;4.622;2022-12-18T08:41:32;15.10;;;7.47;;
38499;SDS011;24269;51.894;4.622;2022-12-18T08:43:58;20.80;;;8.50;;
38499;SDS011;24269;51.894;4.622;2022-12-18T08:46:43;18.45;;;8.40;;
38499;SDS011;24269;51.894;4.622;2022-12-18T08:49:09;18.48;;;7.55;;
38499;SDS011;24269;51.894;4.622;2022-12-18T08:51:36;17.70;;;9.40;;
38499;SDS011;24269;51.894;4.622;2022-12-18T08:54:03;21.42;;;8.30;;
38499;SDS011;24269;51.894;4.622;2022-12-18T08:56:30;18.67;;;8.15;;
38499;SDS011;24269;51.894;4.622;2022-12-18T08:58:56;19.83;;;8.85;;
38499;SDS011;24269;51.894;4.622;2022-12-18T09:01:22;18.83;;;8.52;;
38499;SDS011;24269;51.894;4.622;2022-12-18T09:03:48;17.35;;;9.15;;
38499;SDS011;24269;51.894;4.622;2022-12-18T09:06:18;21.92;;;8.13;;
38499;SDS011;24269;51.894;4.622;2022-12-18T09:08:45;17.30;;;9.05;;
38499;SDS011;24269;51.894;4.622;2022-12-18T09:11:15;18.33;;;8.23;;
38499;SDS011;24269;51.894;4.622;2022-12-18T09:13:48;16.17;;;7.22;;
38499;SDS011;24269;51.894;4.622;2022-12-18T09:16:15;17.27;;;8.85;;
38499;SDS011;24269;51.894;4.622;2022-12-18T09:18:41;21.20;;;8.57;;
38499;SDS011;24269;51.894;4.622;2022-12-18T09:21:07;18.70;;;8.10;;
38499;SDS011;24269;51.894;4.622;2022-12-18T09:26:04;14.57;;;7.07;;
38499;SDS011;24269;51.894;4.622;2022-12-18T09:28:30;16.05;;;8.15;;
38499;SDS011;24269;51.894;4.622;2022-12-18T09:30:55;13.63;;;7.15;;
38499;SDS011;24269;51.894;4.622;2022-12-18T09:33:22;19.05;;;7.97;;
38499;SDS011;24269;51.894;4.622;2022-12-18T09:35:48;21.65;;;7.78;;
38499;SDS011;24269;51.894;4.622;2022-12-18T09:38:17;17.63;;;8.52;;
38499;SDS011;24269;51.894;4.622;2022-12-18T09:40:48;20.02;;;8.60;;
38499;SDS011;24269;51.894;4.622;2022-12-18T09:43:24;18.88;;;8.35;;
38499;SDS011;24269;51.894;4.622;2022-12-18T09:46:01;17.98;;;8.00;;
38499;SDS011;24269;51.894;4.622;2022-12-18T09:48:32;19.60;;;8.65;;
38499;SDS011;24269;51.894;4.622;2022-12-18T09:51:37;20.05;;;9.00;;
38499;SDS011;24269;51.894;4.622;2022-12-18T09:54:11;21.08;;;8.27;;
38499;SDS011;24269;51.894;4.622;2022-12-18T09:56:43;17.63;;;8.77;;
38499;SDS011;24269;51.894;4.622;2022-12-18T09:59:18;18.88;;;8.93;;
38499;SDS011;24269;51.894;4.622;2022-12-18T10:01:44;18.58;;;7.88;;
38499;SDS011;24269;51.894;4.622;2022-12-18T10:04:10;18.38;;;8.73;;
38499;SDS011;24269;51.894;4.622;2022-12-18T10:12:08;21.00;;;7.90;;
38499;SDS011;24269;51.894;4.622;2022-12-18T10:17:51;19.92;;;8.48;;
38499;SDS011;24269;51.894;4.622;2022-12-18T10:28:17;16.13;;;8.30;;
38499;SDS011;24269;51.894;4.622;2022-12-18T10:30:44;16.70;;;8.68;;
38499;SDS011;24269;51.894;4.622;2022-12-18T10:33:29;18.67;;;7.70;;
38499;SDS011;24269;51.894;4.622;2022-12-18T10:35:56;16.55;;;8.70;;
38499;SDS011;24269;51.894;4.622;2022-12-18T10:38:23;15.63;;;8.02;;
38499;SDS011;24269;51.894;4.622;2022-12-18T10:43:22;16.38;;;8.50;;
38499;SDS011;24269;51.894;4.622;2022-12-18T10:54:19;18.52;;;7.90;;
38499;SDS011;24269;51.894;4.622;2022-12-18T10:56:47;19.00;;;8.30;;
38499;SDS011;24269;51.894;4.622;2022-12-18T10:59:14;21.27;;;9.80;;
38499;SDS011;24269;51.894;4.622;2022-12-18T11:04:33;17.08;;;8.15;;
38499;SDS011;24269;51.894;4.622;2022-12-18T11:07:07;16.38;;;8.07;;
38499;SDS011;24269;51.894;4.622;2022-12-18T11:09:34;19.08;;;8.05;;
38499;SDS011;24269;51.894;4.622;2022-12-18T11:12:02;17.23;;;8.75;;
38499;SDS011;24269;51.894;4.622;2022-12-18T11:14:46;14.98;;;8.02;;
38499;SDS011;24269;51.894;4.622;2022-12-18T11:17:18;18.55;;;8.48;;
38499;SDS011;24269;51.894;4.622;2022-12-18T11:19:45;17.05;;;7.80;;
38499;SDS011;24269;51.894;4.622;2022-12-18T11:24:56;15.75;;;8.60;;
38499;SDS011;24269;51.894;4.622;2022-12-18T11:27:26;17.50;;;8.38;;
38499;SDS011;24269;51.894;4.622;2022-12-18T11:30:06;17.48;;;8.15;;
38499;SDS011;24269;51.894;4.622;2022-12-18T11:33:28;17.90;;;7.63;;
38499;SDS011;24269;51.894;4.622;2022-12-18T11:35:40;16.02;;;8.20;;
38499;SDS011;24269;51.894;4.622;2022-12-18T11:38:18;15.55;;;8.23;;
38499;SDS011;24269;51.894;4.622;2022-12-18T11:43:28;18.05;;;8.43;;
38499;SDS011;24269;51.894;4.622;2022-12-18T11:46:32;17.25;;;8.55;;
38499;SDS011;24269;51.894;4.622;2022-12-18T11:54:24;15.68;;;7.93;;
38499;SDS011;24269;51.894;4.622;2022-12-18T11:56:55;19.27;;;8.52;;
38499;SDS011;24269;51.894;4.622;2022-12-18T12:04:59;19.15;;;8.18;;
38499;SDS011;24269;51.894;4.622;2022-12-18T12:16:06;19.48;;;7.93;;
38499;SDS011;24269;51.894;4.622;2022-12-18T12:21:38;20.00;;;7.72;;
38499;SDS011;24269;51.894;4.622;2022-12-18T12:32:22;24.52;;;8.85;;
38499;SDS011;24269;51.894;4.622;2022-12-18T12:35:12;19.23;;;9.23;;
38499;SDS011;24269;51.894;4.622;2022-12-18T12:40:49;20.30;;;8.98;;
38499;SDS011;24269;51.894;4.622;2022-12-18T12:43:21;17.60;;;8.93;;
38499;SDS011;24269;51.894;4.622;2022-12-18T12:46:00;20.08;;;9.57;;
38499;SDS011;24269;51.894;4.622;2022-12-18T12:51:10;20.23;;;8.70;;
38499;SDS011;24269;51.894;4.622;2022-12-18T12:53:44;17.92;;;8.95;;
38499;SDS011;24269;51.894;4.622;2022-12-18T12:56:11;19.42;;;9.40;;
38499;SDS011;24269;51.894;4.622;2022-12-18T12:59:02;18.20;;;8.98;;
38499;SDS011;24269;51.894;4.622;2022-12-18T13:15:31;22.25;;;8.38;;
38499;SDS011;24269;51.894;4.622;2022-12-18T13:20:42;19.40;;;8.73;;
38499;SDS011;24269;51.894;4.622;2022-12-18T13:25:57;22.65;;;9.75;;
38499;SDS011;24269;51.894;4.622;2022-12-18T13:31:09;16.73;;;8.68;;
38499;SDS011;24269;51.894;4.622;2022-12-18T13:36:11;26.35;;;11.30;;
38499;SDS011;24269;51.894;4.622;2022-12-18T13:38:40;25.15;;;10.73;;
38499;SDS011;24269;51.894;4.622;2022-12-18T13:43:42;22.02;;;9.38;;
38499;SDS011;24269;51.894;4.622;2022-12-18T13:51:25;18.33;;;8.75;;
38499;SDS011;24269;51.894;4.622;2022-12-18T13:56:44;19.67;;;8.68;;
38499;SDS011;24269;51.894;4.622;2022-12-18T13:59:13;19.80;;;8.75;;
38499;SDS011;24269;51.894;4.622;2022-12-18T14:02:29;20.60;;;9.07;;
38499;SDS011;24269;51.894;4.622;2022-12-18T14:04:39;20.58;;;8.63;;
38499;SDS011;24269;51.894;4.622;2022-12-18T14:07:06;22.02;;;9.52;;
38499;SDS011;24269;51.894;4.622;2022-12-18T14:09:37;19.13;;;9.68;;
38499;SDS011;24269;51.894;4.622;2022-12-18T14:12:12;15.70;;;7.88;;
38499;SDS011;24269;51.894;4.622;2022-12-18T14:15:20;18.52;;;8.98;;
38499;SDS011;24269;51.894;4.622;2022-12-18T14:17:55;22.75;;;9.25;;
38499;SDS011;24269;51.894;4.622;2022-12-18T14:20:24;19.38;;;8.98;;
38499;SDS011;24269;51.894;4.622;2022-12-18T14:22:52;21.52;;;9.73;;
38499;SDS011;24269;51.894;4.622;2022-12-18T14:25:21;20.30;;;9.43;;
38499;SDS011;24269;51.894;4.622;2022-12-18T14:30:32;19.73;;;9.50;;
38499;SDS011;24269;51.894;4.622;2022-12-18T14:33:09;22.50;;;9.27;;
38499;SDS011;24269;51.894;4.622;2022-12-18T14:35:41;17.90;;;8.27;;
38499;SDS011;24269;51.894;4.622;2022-12-18T14:40:59;19.65;;;9.32;;
38499;SDS011;24269;51.894;4.622;2022-12-18T14:43:26;23.00;;;9.70;;
38499;SDS011;24269;51.894;4.622;2022-12-18T14:45:54;21.13;;;9.73;;
38499;SDS011;24269;51.894;4.622;2022-12-18T14:48:21;20.17;;;9.40;;
38499;SDS011;24269;51.894;4.622;2022-12-18T14:53:48;20.42;;;9.10;;
38499;SDS011;24269;51.894;4.622;2022-12-18T14:56:21;16.73;;;8.75;;
38499;SDS011;24269;51.894;4.622;2022-12-18T14:58:55;17.33;;;9.30;;
38499;SDS011;24269;51.894;4.622;2022-12-18T15:01:30;18.02;;;9.27;;
38499;SDS011;24269;51.894;4.622;2022-12-18T15:04:02;23.42;;;10.13;;
38499;SDS011;24269;51.894;4.622;2022-12-18T15:06:31;22.17;;;9.50;;
38499;SDS011;24269;51.894;4.622;2022-12-18T15:09:00;17.73;;;8.85;;
38499;SDS011;24269;51.894;4.622;2022-12-18T15:16:56;22.60;;;9.18;;
38499;SDS011;24269;51.894;4.622;2022-12-18T15:19:35;19.38;;;9.15;;
38499;SDS011;24269;51.894;4.622;2022-12-18T15:22:05;21.20;;;9.05;;
38499;SDS011;24269;51.894;4.622;2022-12-18T15:24:44;17.95;;;9.20;;
38499;SDS011;24269;51.894;4.622;2022-12-18T15:27:23;19.52;;;8.90;;
38499;SDS011;24269;51.894;4.622;2022-12-18T15:32:33;21.00;;;9.68;;
38499;SDS011;24269;51.894;4.622;2022-12-18T15:35:41;20.95;;;9.27;;
38499;SDS011;24269;51.894;4.622;2022-12-18T15:37:50;18.75;;;8.23;;
38499;SDS011;24269;51.894;4.622;2022-12-18T15:40:21;19.33;;;8.98;;
38499;SDS011;24269;51.894;4.622;2022-12-18T15:42:50;19.27;;;8.80;;
38499;SDS011;24269;51.894;4.622;2022-12-18T15:45:37;16.98;;;7.32;;
38499;SDS011;24269;51.894;4.622;2022-12-18T15:48:04;19.83;;;8.48;;
38499;SDS011;24269;51.894;4.622;2022-12-18T15:50:48;17.95;;;7.72;;
38499;SDS011;24269;51.894;4.622;2022-12-18T15:53:17;18.45;;;8.18;;
38499;SDS011;24269;51.894;4.622;2022-12-18T15:55:43;18.80;;;8.18;;
38499;SDS011;24269;51.894;4.622;2022-12-18T15:58:28;20.92;;;8.43;;
38499;SDS011;24269;51.894;4.622;2022-12-18T16:00:53;19.80;;;8.07;;
38499;SDS011;24269;51.894;4.622;2022-12-18T16:03:21;18.73;;;8.68;;
38499;SDS011;24269;51.894;4.622;2022-12-18T16:05:46;19.90;;;8.55;;
38499;SDS011;24269;51.894;4.622;2022-12-18T16:08:12;17.50;;;8.05;;
38499;SDS011;24269;51.894;4.622;2022-12-18T16:10:38;18.45;;;8.10;;
38499;SDS011;24269;51.894;4.622;2022-12-18T16:13:03;17.25;;;8.25;;
38499;SDS011;24269;51.894;4.622;2022-12-18T16:15:29;20.13;;;8.45;;
38499;SDS011;24269;51.894;4.622;2022-12-18T16:17:54;19.67;;;8.38;;
38499;SDS011;24269;51.894;4.622;2022-12-18T16:20:21;19.55;;;8.45;;
38499;SDS011;24269;51.894;4.622;2022-12-18T16:22:47;17.08;;;7.68;;
38499;SDS011;24269;51.894;4.622;2022-12-18T16:25:23;16.50;;;7.90;;
38499;SDS011;24269;51.894;4.622;2022-12-18T16:27:53;17.23;;;7.75;;
38499;SDS011;24269;51.894;4.622;2022-12-18T16:30:23;18.85;;;8.10;;
38499;SDS011;24269;51.894;4.622;2022-12-18T16:32:52;17.05;;;7.82;;
38499;SDS011;24269;51.894;4.622;2022-12-18T16:35:18;19.25;;;7.43;;
38499;SDS011;24269;51.894;4.622;2022-12-18T16:37:44;15.32;;;7.72;;
38499;SDS011;24269;51.894;4.622;2022-12-18T16:40:10;19.40;;;8.02;;
38499;SDS011;24269;51.894;4.622;2022-12-18T16:42:38;20.05;;;8.82;;
38499;SDS011;24269;51.894;4.622;2022-12-18T16:45:05;18.05;;;8.00;;
38499;SDS011;24269;51.894;4.622;2022-12-18T16:47:33;17.73;;;8.15;;
38499;SDS011;24269;51.894;4.622;2022-12-18T16:49:58;19.73;;;8.38;;
38499;SDS011;24269;51.894;4.622;2022-12-18T16:52:24;15.80;;;8.73;;
38499;SDS011;24269;51.894;4.622;2022-12-18T16:54:49;17.90;;;7.57;;
38499;SDS011;24269;51.894;4.622;2022-12-18T16:57:16;20.23;;;7.88;;
38499;SDS011;24269;51.894;4.622;2022-12-18T16:59:43;18.88;;;8.65;;
38499;SDS011;24269;51.894;4.622;2022-12-18T17:02:13;17.08;;;8.23;;
38499;SDS011;24269;51.894;4.622;2022-12-18T17:04:43;17.95;;;8.07;;
38499;SDS011;24269;51.894;4.622;2022-12-18T17:07:10;16.73;;;8.77;;
38499;SDS011;24269;51.894;4.622;2022-12-18T17:09:36;19.20;;;8.50;;
38499;SDS011;24269;51.894;4.622;2022-12-18T17:12:02;21.40;;;8.90;;
38499;SDS011;24269;51.894;4.622;2022-12-18T17:14:28;19.92;;;8.68;;
38499;SDS011;24269;51.894;4.622;2022-12-18T17:16:54;18.65;;;9.20;;
38499;SDS011;24269;51.894;4.622;2022-12-18T17:19:21;18.02;;;8.68;;
38499;SDS011;24269;51.894;4.622;2022-12-18T17:21:48;17.00;;;8.18;;
38499;SDS011;24269;51.894;4.622;2022-12-18T17:24:15;20.00;;;8.80;;
38499;SDS011;24269;51.894;4.622;2022-12-18T17:26:41;20.55;;;9.73;;